sensor_id;sensor_type;location;lat;lon;timestamp;P1;durP1;ratioP1;P2;durP2;ratioP2
1416;SDS011;703;51.162;13.574;2023-02-28T00:00:24;38.90;;;10.40;;
1416;SDS011;703;51.162;13.574;2023-02-28T00:02:50;38.97;;;11.43;;
1416;SDS011;703;51.162;13.574;2023-02-28T00:05:17;39.60;;;10.77;;
1416;SDS011;703;51.162;13.574;2023-02-28T00:07:44;38.73;;;10.90;;
1416;SDS011;703;51.162;13.574;2023-02-28T00:10:14;39.87;;;11.23;;
1416;SDS011;703;51.162;13.574;2023-02-28T00:12:48;38.93;;;10.80;;
1416;SDS011;703;51.162;13.574;2023-02-28T00:15:15;40.10;;;11.30;;
1416;SDS011;703;51.162;13.574;2023-02-28T00:17:41;41.90;;;11.90;;
1416;SDS011;703;51.162;13.574;2023-02-28T00:20:07;39.00;;;10.70;;
1416;SDS011;703;51.162;13.574;2023-02-28T00:22:37;39.47;;;10.73;;
1416;SDS011;703;51.162;13.574;2023-02-28T00:25:04;39.50;;;11.80;;
1416;SDS011;703;51.162;13.574;2023-02-28T00:27:31;42.43;;;12.20;;
1416;SDS011;703;51.162;13.574;2023-02-28T00:30:01;42.90;;;12.30;;
1416;SDS011;703;51.162;13.574;2023-02-28T00:32:27;39.27;;;10.77;;
1416;SDS011;703;51.162;13.574;2023-02-28T00:34:53;40.40;;;11.27;;
1416;SDS011;703;51.162;13.574;2023-02-28T00:37:19;38.93;;;11.40;;
1416;SDS011;703;51.162;13.574;2023-02-28T00:39:45;40.07;;;12.53;;
1416;SDS011;703;51.162;13.574;2023-02-28T00:42:11;41.30;;;11.90;;
1416;SDS011;703;51.162;13.574;2023-02-28T00:44:37;40.73;;;13.07;;
1416;SDS011;703;51.162;13.574;2023-02-28T00:47:03;40.23;;;11.43;;
1416;SDS011;703;51.162;13.574;2023-02-28T00:49:29;43.10;;;12.00;;
1416;SDS011;703;51.162;13.574;2023-02-28T00:51:55;39.37;;;11.27;;
1416;SDS011;703;51.162;13.574;2023-02-28T00:54:21;42.10;;;12.10;;
1416;SDS011;703;51.162;13.574;2023-02-28T00:56:47;40.00;;;11.17;;
1416;SDS011;703;51.162;13.574;2023-02-28T00:59:14;44.37;;;11.73;;
1416;SDS011;703;51.162;13.574;2023-02-28T01:01:40;40.10;;;11.50;;
1416;SDS011;703;51.162;13.574;2023-02-28T01:04:06;40.50;;;12.27;;
1416;SDS011;703;51.162;13.574;2023-02-28T01:06:32;40.20;;;11.60;;
1416;SDS011;703;51.162;13.574;2023-02-28T01:08:58;40.40;;;11.93;;
1416;SDS011;703;51.162;13.574;2023-02-28T01:11:25;40.00;;;11.60;;
1416;SDS011;703;51.162;13.574;2023-02-28T01:13:50;39.90;;;12.30;;
1416;SDS011;703;51.162;13.574;2023-02-28T01:16:17;39.80;;;11.50;;
1416;SDS011;703;51.162;13.574;2023-02-28T01:18:42;42.50;;;12.40;;
1416;SDS011;703;51.162;13.574;2023-02-28T01:21:13;47.10;;;12.10;;
1416;SDS011;703;51.162;13.574;2023-02-28T01:23:40;40.50;;;10.40;;
1416;SDS011;703;51.162;13.574;2023-02-28T01:26:08;39.33;;;10.53;;
1416;SDS011;703;51.162;13.574;2023-02-28T01:28:34;40.97;;;12.33;;
1416;SDS011;703;51.162;13.574;2023-02-28T01:31:00;39.97;;;11.87;;
1416;SDS011;703;51.162;13.574;2023-02-28T01:33:27;40.27;;;11.50;;
1416;SDS011;703;51.162;13.574;2023-02-28T01:38:49;40.10;;;11.57;;
1416;SDS011;703;51.162;13.574;2023-02-28T01:43:56;40.80;;;11.90;;
1416;SDS011;703;51.162;13.574;2023-02-28T01:46:22;42.23;;;12.13;;
1416;SDS011;703;51.162;13.574;2023-02-28T01:51:41;42.13;;;12.17;;
1416;SDS011;703;51.162;13.574;2023-02-28T01:54:09;42.57;;;12.77;;
1416;SDS011;703;51.162;13.574;2023-02-28T01:56:39;42.27;;;12.67;;
1416;SDS011;703;51.162;13.574;2023-02-28T01:59:07;40.97;;;12.27;;
1416;SDS011;703;51.162;13.574;2023-02-28T02:01:33;42.27;;;12.30;;
1416;SDS011;703;51.162;13.574;2023-02-28T02:03:59;41.30;;;12.40;;
1416;SDS011;703;51.162;13.574;2023-02-28T02:06:29;41.70;;;12.73;;
1416;SDS011;703;51.162;13.574;2023-02-28T02:08:56;42.70;;;13.33;;
1416;SDS011;703;51.162;13.574;2023-02-28T02:11:22;41.57;;;12.83;;
1416;SDS011;703;51.162;13.574;2023-02-28T02:18:56;42.67;;;13.57;;
1416;SDS011;703;51.162;13.574;2023-02-28T02:34:24;42.20;;;13.90;;
1416;SDS011;703;51.162;13.574;2023-02-28T02:36:59;41.83;;;11.83;;
1416;SDS011;703;51.162;13.574;2023-02-28T02:39:31;41.67;;;13.03;;
1416;SDS011;703;51.162;13.574;2023-02-28T02:42:24;43.70;;;13.00;;
1416;SDS011;703;51.162;13.574;2023-02-28T02:45:02;41.40;;;11.90;;
1416;SDS011;703;51.162;13.574;2023-02-28T02:47:30;42.17;;;13.10;;
1416;SDS011;703;51.162;13.574;2023-02-28T02:49:58;43.30;;;11.33;;
1416;SDS011;703;51.162;13.574;2023-02-28T02:52:30;43.73;;;12.40;;
1416;SDS011;703;51.162;13.574;2023-02-28T02:55:00;42.73;;;13.90;;
1416;SDS011;703;51.162;13.574;2023-02-28T02:57:38;47.40;;;13.97;;
1416;SDS011;703;51.162;13.574;2023-02-28T03:00:15;44.37;;;13.50;;
1416;SDS011;703;51.162;13.574;2023-02-28T03:02:41;42.53;;;12.67;;
1416;SDS011;703;51.162;13.574;2023-02-28T03:05:12;44.90;;;12.07;;
1416;SDS011;703;51.162;13.574;2023-02-28T03:07:41;41.67;;;11.93;;
1416;SDS011;703;51.162;13.574;2023-02-28T03:12:54;42.50;;;13.10;;
1416;SDS011;703;51.162;13.574;2023-02-28T03:15:27;41.70;;;12.67;;
1416;SDS011;703;51.162;13.574;2023-02-28T03:18:02;41.80;;;12.13;;
1416;SDS011;703;51.162;13.574;2023-02-28T03:23:09;41.70;;;12.30;;
1416;SDS011;703;51.162;13.574;2023-02-28T03:30:54;41.57;;;12.93;;
1416;SDS011;703;51.162;13.574;2023-02-28T03:33:26;43.10;;;11.97;;
1416;SDS011;703;51.162;13.574;2023-02-28T03:35:54;42.80;;;12.27;;
1416;SDS011;703;51.162;13.574;2023-02-28T03:38:28;42.17;;;12.33;;
1416;SDS011;703;51.162;13.574;2023-02-28T03:41:16;45.37;;;12.57;;
1416;SDS011;703;51.162;13.574;2023-02-28T03:43:52;41.97;;;11.90;;
1416;SDS011;703;51.162;13.574;2023-02-28T03:46:19;41.90;;;12.10;;
1416;SDS011;703;51.162;13.574;2023-02-28T03:48:51;41.70;;;12.83;;
1416;SDS011;703;51.162;13.574;2023-02-28T03:51:18;41.50;;;12.10;;
1416;SDS011;703;51.162;13.574;2023-02-28T03:53:50;41.60;;;12.30;;
1416;SDS011;703;51.162;13.574;2023-02-28T03:56:19;42.00;;;12.17;;
1416;SDS011;703;51.162;13.574;2023-02-28T03:58:47;43.50;;;12.90;;
1416;SDS011;703;51.162;13.574;2023-02-28T04:01:49;43.30;;;14.43;;
1416;SDS011;703;51.162;13.574;2023-02-28T04:04:16;42.20;;;12.90;;
1416;SDS011;703;51.162;13.574;2023-02-28T04:06:43;42.70;;;12.97;;
1416;SDS011;703;51.162;13.574;2023-02-28T04:09:09;41.67;;;12.93;;
1416;SDS011;703;51.162;13.574;2023-02-28T04:11:37;42.72;;;12.90;;
1416;SDS011;703;51.162;13.574;2023-02-28T04:14:04;41.80;;;13.00;;
1416;SDS011;703;51.162;13.574;2023-02-28T04:16:30;44.30;;;14.90;;
1416;SDS011;703;51.162;13.574;2023-02-28T04:18:57;42.70;;;13.40;;
1416;SDS011;703;51.162;13.574;2023-02-28T04:21:37;41.90;;;12.93;;
1416;SDS011;703;51.162;13.574;2023-02-28T04:24:10;42.63;;;13.73;;
1416;SDS011;703;51.162;13.574;2023-02-28T04:26:39;45.20;;;14.80;;
1416;SDS011;703;51.162;13.574;2023-02-28T04:29:05;42.92;;;13.63;;
1416;SDS011;703;51.162;13.574;2023-02-28T04:31:32;43.10;;;14.10;;
1416;SDS011;703;51.162;13.574;2023-02-28T04:33:58;42.67;;;13.60;;
1416;SDS011;703;51.162;13.574;2023-02-28T04:36:24;42.42;;;13.20;;
1416;SDS011;703;51.162;13.574;2023-02-28T04:38:51;42.30;;;12.93;;
1416;SDS011;703;51.162;13.574;2023-02-28T04:41:17;42.60;;;13.67;;
1416;SDS011;703;51.162;13.574;2023-02-28T04:43:43;42.85;;;12.25;;
1416;SDS011;703;51.162;13.574;2023-02-28T04:46:09;42.60;;;12.77;;
1416;SDS011;703;51.162;13.574;2023-02-28T04:48:36;42.72;;;13.45;;
1416;SDS011;703;51.162;13.574;2023-02-28T04:51:06;42.67;;;13.40;;
1416;SDS011;703;51.162;13.574;2023-02-28T04:53:33;44.22;;;14.85;;
1416;SDS011;703;51.162;13.574;2023-02-28T04:55:59;45.55;;;14.15;;
1416;SDS011;703;51.162;13.574;2023-02-28T04:58:26;44.10;;;14.50;;
1416;SDS011;703;51.162;13.574;2023-02-28T05:00:53;42.67;;;12.27;;
1416;SDS011;703;51.162;13.574;2023-02-28T05:03:19;42.65;;;13.60;;
1416;SDS011;703;51.162;13.574;2023-02-28T05:05:47;42.78;;;11.63;;
1416;SDS011;703;51.162;13.574;2023-02-28T05:08:13;43.90;;;14.60;;
1416;SDS011;703;51.162;13.574;2023-02-28T05:10:38;44.20;;;14.13;;
1416;SDS011;703;51.162;13.574;2023-02-28T05:13:04;43.13;;;13.60;;
1416;SDS011;703;51.162;13.574;2023-02-28T05:15:30;43.60;;;14.23;;
1416;SDS011;703;51.162;13.574;2023-02-28T05:17:56;43.40;;;13.38;;
1416;SDS011;703;51.162;13.574;2023-02-28T05:20:22;47.20;;;13.27;;
1416;SDS011;703;51.162;13.574;2023-02-28T05:22:49;47.03;;;13.27;;
1416;SDS011;703;51.162;13.574;2023-02-28T05:25:18;44.00;;;15.00;;
1416;SDS011;703;51.162;13.574;2023-02-28T05:27:44;48.20;;;16.85;;
1416;SDS011;703;51.162;13.574;2023-02-28T05:30:11;51.42;;;20.45;;
1416;SDS011;703;51.162;13.574;2023-02-28T05:32:37;46.83;;;17.00;;
1416;SDS011;703;51.162;13.574;2023-02-28T05:35:03;49.25;;;18.83;;
1416;SDS011;703;51.162;13.574;2023-02-28T05:37:29;45.90;;;16.60;;
1416;SDS011;703;51.162;13.574;2023-02-28T05:39:55;47.37;;;14.27;;
1416;SDS011;703;51.162;13.574;2023-02-28T05:42:21;48.07;;;17.20;;
1416;SDS011;703;51.162;13.574;2023-02-28T05:44:47;47.77;;;17.00;;
1416;SDS011;703;51.162;13.574;2023-02-28T05:47:13;47.80;;;16.40;;
1416;SDS011;703;51.162;13.574;2023-02-28T05:49:40;45.78;;;16.98;;
1416;SDS011;703;51.162;13.574;2023-02-28T05:52:07;46.70;;;17.20;;
1416;SDS011;703;51.162;13.574;2023-02-28T05:54:36;46.75;;;16.90;;
1416;SDS011;703;51.162;13.574;2023-02-28T05:57:02;44.55;;;17.15;;
1416;SDS011;703;51.162;13.574;2023-02-28T05:59:27;46.50;;;16.63;;
1416;SDS011;703;51.162;13.574;2023-02-28T06:01:53;45.60;;;16.30;;
1416;SDS011;703;51.162;13.574;2023-02-28T06:04:20;46.40;;;16.25;;
1416;SDS011;703;51.162;13.574;2023-02-28T06:06:46;46.60;;;17.02;;
1416;SDS011;703;51.162;13.574;2023-02-28T06:09:13;45.65;;;16.65;;
1416;SDS011;703;51.162;13.574;2023-02-28T06:11:39;43.15;;;15.88;;
1416;SDS011;703;51.162;13.574;2023-02-28T06:14:05;48.33;;;18.35;;
1416;SDS011;703;51.162;13.574;2023-02-28T06:16:32;46.92;;;16.95;;
1416;SDS011;703;51.162;13.574;2023-02-28T06:19:00;47.65;;;20.73;;
1416;SDS011;703;51.162;13.574;2023-02-28T06:21:26;49.42;;;18.77;;
1416;SDS011;703;51.162;13.574;2023-02-28T06:23:52;51.33;;;21.90;;
1416;SDS011;703;51.162;13.574;2023-02-28T06:26:19;52.05;;;20.88;;
1416;SDS011;703;51.162;13.574;2023-02-28T06:28:45;50.83;;;19.52;;
1416;SDS011;703;51.162;13.574;2023-02-28T06:31:12;48.10;;;20.30;;
1416;SDS011;703;51.162;13.574;2023-02-28T06:33:38;49.35;;;20.10;;
1416;SDS011;703;51.162;13.574;2023-02-28T06:36:05;49.33;;;20.58;;
1416;SDS011;703;51.162;13.574;2023-02-28T06:38:31;49.27;;;21.10;;
1416;SDS011;703;51.162;13.574;2023-02-28T06:40:58;47.67;;;20.00;;
1416;SDS011;703;51.162;13.574;2023-02-28T06:43:25;48.63;;;19.63;;
1416;SDS011;703;51.162;13.574;2023-02-28T06:45:54;55.97;;;20.58;;
1416;SDS011;703;51.162;13.574;2023-02-28T06:48:20;50.37;;;21.87;;
1416;SDS011;703;51.162;13.574;2023-02-28T06:50:46;51.30;;;20.30;;
1416;SDS011;703;51.162;13.574;2023-02-28T06:53:12;48.00;;;19.23;;
1416;SDS011;703;51.162;13.574;2023-02-28T06:55:39;49.93;;;20.83;;
1416;SDS011;703;51.162;13.574;2023-02-28T06:58:05;50.93;;;20.43;;
1416;SDS011;703;51.162;13.574;2023-02-28T07:00:42;50.90;;;21.20;;
1416;SDS011;703;51.162;13.574;2023-02-28T07:03:09;53.37;;;23.00;;
1416;SDS011;703;51.162;13.574;2023-02-28T07:05:36;51.70;;;22.23;;
1416;SDS011;703;51.162;13.574;2023-02-28T07:08:02;58.07;;;22.30;;
1416;SDS011;703;51.162;13.574;2023-02-28T07:10:29;53.43;;;22.00;;
1416;SDS011;703;51.162;13.574;2023-02-28T07:12:55;51.70;;;21.57;;
1416;SDS011;703;51.162;13.574;2023-02-28T07:15:21;53.27;;;23.30;;
1416;SDS011;703;51.162;13.574;2023-02-28T07:17:47;52.37;;;20.63;;
1416;SDS011;703;51.162;13.574;2023-02-28T07:20:13;59.13;;;25.63;;
1416;SDS011;703;51.162;13.574;2023-02-28T07:22:38;59.53;;;22.93;;
1416;SDS011;703;51.162;13.574;2023-02-28T07:25:05;54.07;;;25.63;;
1416;SDS011;703;51.162;13.574;2023-02-28T07:27:31;52.60;;;23.97;;
1416;SDS011;703;51.162;13.574;2023-02-28T07:29:57;55.97;;;26.57;;
1416;SDS011;703;51.162;13.574;2023-02-28T07:32:26;52.70;;;24.00;;
1416;SDS011;703;51.162;13.574;2023-02-28T07:34:52;50.93;;;21.63;;
1416;SDS011;703;51.162;13.574;2023-02-28T07:37:18;51.40;;;20.97;;
1416;SDS011;703;51.162;13.574;2023-02-28T07:39:44;49.67;;;21.13;;
1416;SDS011;703;51.162;13.574;2023-02-28T07:42:10;50.00;;;21.40;;
1416;SDS011;703;51.162;13.574;2023-02-28T07:44:38;47.30;;;18.50;;
1416;SDS011;703;51.162;13.574;2023-02-28T07:47:09;47.40;;;17.33;;
1416;SDS011;703;51.162;13.574;2023-02-28T07:49:38;51.00;;;17.53;;
1416;SDS011;703;51.162;13.574;2023-02-28T07:52:07;47.70;;;19.20;;
1416;SDS011;703;51.162;13.574;2023-02-28T07:54:33;48.00;;;17.00;;
1416;SDS011;703;51.162;13.574;2023-02-28T07:56:59;45.65;;;17.20;;
1416;SDS011;703;51.162;13.574;2023-02-28T07:59:25;48.10;;;18.50;;
1416;SDS011;703;51.162;13.574;2023-02-28T08:01:50;47.80;;;18.83;;
1416;SDS011;703;51.162;13.574;2023-02-28T08:04:17;47.10;;;18.27;;
1416;SDS011;703;51.162;13.574;2023-02-28T08:06:43;48.90;;;17.73;;
1416;SDS011;703;51.162;13.574;2023-02-28T08:09:08;45.40;;;17.43;;
1416;SDS011;703;51.162;13.574;2023-02-28T08:11:34;47.20;;;18.33;;
1416;SDS011;703;51.162;13.574;2023-02-28T08:14:01;45.67;;;17.43;;
1416;SDS011;703;51.162;13.574;2023-02-28T08:16:27;45.67;;;17.73;;
1416;SDS011;703;51.162;13.574;2023-02-28T08:18:52;45.10;;;17.70;;
1416;SDS011;703;51.162;13.574;2023-02-28T08:21:19;45.83;;;17.70;;
1416;SDS011;703;51.162;13.574;2023-02-28T08:23:48;45.77;;;17.47;;
1416;SDS011;703;51.162;13.574;2023-02-28T08:26:16;46.40;;;18.73;;
1416;SDS011;703;51.162;13.574;2023-02-28T08:28:42;48.97;;;19.90;;
1416;SDS011;703;51.162;13.574;2023-02-28T08:31:10;45.30;;;17.03;;
1416;SDS011;703;51.162;13.574;2023-02-28T08:33:36;44.13;;;16.60;;
1416;SDS011;703;51.162;13.574;2023-02-28T08:36:04;45.67;;;18.47;;
1416;SDS011;703;51.162;13.574;2023-02-28T08:38:30;43.47;;;16.20;;
1416;SDS011;703;51.162;13.574;2023-02-28T08:41:00;46.63;;;19.57;;
1416;SDS011;703;51.162;13.574;2023-02-28T08:43:27;43.13;;;16.50;;
1416;SDS011;703;51.162;13.574;2023-02-28T08:45:53;43.03;;;16.90;;
1416;SDS011;703;51.162;13.574;2023-02-28T08:48:22;42.90;;;15.90;;
1416;SDS011;703;51.162;13.574;2023-02-28T08:51:01;43.27;;;16.67;;
1416;SDS011;703;51.162;13.574;2023-02-28T08:53:27;45.47;;;15.83;;
1416;SDS011;703;51.162;13.574;2023-02-28T08:55:57;43.63;;;16.23;;
1416;SDS011;703;51.162;13.574;2023-02-28T08:58:23;44.17;;;16.40;;
1416;SDS011;703;51.162;13.574;2023-02-28T09:00:50;47.17;;;17.83;;
1416;SDS011;703;51.162;13.574;2023-02-28T09:03:16;41.57;;;15.60;;
1416;SDS011;703;51.162;13.574;2023-02-28T09:05:51;41.23;;;15.00;;
1416;SDS011;703;51.162;13.574;2023-02-28T09:08:21;42.77;;;16.47;;
1416;SDS011;703;51.162;13.574;2023-02-28T09:10:47;42.03;;;16.70;;
1416;SDS011;703;51.162;13.574;2023-02-28T09:13:12;43.87;;;16.17;;
1416;SDS011;703;51.162;13.574;2023-02-28T09:15:38;41.80;;;14.40;;
1416;SDS011;703;51.162;13.574;2023-02-28T09:18:04;41.07;;;14.93;;
1416;SDS011;703;51.162;13.574;2023-02-28T09:20:30;41.57;;;15.73;;
1416;SDS011;703;51.162;13.574;2023-02-28T09:22:56;43.80;;;15.17;;
1416;SDS011;703;51.162;13.574;2023-02-28T09:25:22;42.93;;;15.03;;
1416;SDS011;703;51.162;13.574;2023-02-28T09:27:48;40.60;;;16.33;;
1416;SDS011;703;51.162;13.574;2023-02-28T09:30:14;40.47;;;16.00;;
1416;SDS011;703;51.162;13.574;2023-02-28T09:32:41;42.63;;;15.90;;
1416;SDS011;703;51.162;13.574;2023-02-28T09:35:07;41.57;;;16.60;;
1416;SDS011;703;51.162;13.574;2023-02-28T09:37:38;40.20;;;14.53;;
1416;SDS011;703;51.162;13.574;2023-02-28T09:40:04;45.27;;;17.23;;
1416;SDS011;703;51.162;13.574;2023-02-28T09:42:31;42.00;;;16.47;;
1416;SDS011;703;51.162;13.574;2023-02-28T09:44:58;43.03;;;15.77;;
1416;SDS011;703;51.162;13.574;2023-02-28T09:50:18;39.07;;;15.20;;
1416;SDS011;703;51.162;13.574;2023-02-28T09:52:48;40.87;;;16.07;;
1416;SDS011;703;51.162;13.574;2023-02-28T09:55:31;40.63;;;15.40;;
1416;SDS011;703;51.162;13.574;2023-02-28T09:58:00;41.57;;;15.70;;
1416;SDS011;703;51.162;13.574;2023-02-28T10:05:54;42.40;;;17.50;;
1416;SDS011;703;51.162;13.574;2023-02-28T10:08:38;44.97;;;21.03;;
1416;SDS011;703;51.162;13.574;2023-02-28T10:11:09;42.60;;;17.07;;
1416;SDS011;703;51.162;13.574;2023-02-28T10:16:08;42.63;;;15.97;;
1416;SDS011;703;51.162;13.574;2023-02-28T10:18:43;40.47;;;16.30;;
1416;SDS011;703;51.162;13.574;2023-02-28T10:21:20;42.63;;;16.83;;
1416;SDS011;703;51.162;13.574;2023-02-28T10:23:46;44.87;;;17.33;;
1416;SDS011;703;51.162;13.574;2023-02-28T10:26:14;40.23;;;17.10;;
1416;SDS011;703;51.162;13.574;2023-02-28T10:28:41;41.40;;;18.03;;
1416;SDS011;703;51.162;13.574;2023-02-28T10:31:10;41.63;;;16.73;;
1416;SDS011;703;51.162;13.574;2023-02-28T10:33:37;41.20;;;18.03;;
1416;SDS011;703;51.162;13.574;2023-02-28T10:36:03;41.57;;;18.40;;
1416;SDS011;703;51.162;13.574;2023-02-28T10:43:29;41.17;;;16.90;;
1416;SDS011;703;51.162;13.574;2023-02-28T10:46:03;44.40;;;19.50;;
1416;SDS011;703;51.162;13.574;2023-02-28T10:48:30;41.23;;;17.50;;
1416;SDS011;703;51.162;13.574;2023-02-28T10:50:57;41.30;;;18.23;;
1416;SDS011;703;51.162;13.574;2023-02-28T10:58:22;40.40;;;16.73;;
1416;SDS011;703;51.162;13.574;2023-02-28T11:00:48;40.40;;;17.30;;
1416;SDS011;703;51.162;13.574;2023-02-28T11:03:25;41.87;;;18.57;;
1416;SDS011;703;51.162;13.574;2023-02-28T11:05:54;41.67;;;19.37;;
1416;SDS011;703;51.162;13.574;2023-02-28T11:08:20;42.73;;;19.70;;
1416;SDS011;703;51.162;13.574;2023-02-28T11:10:46;39.87;;;18.03;;
1416;SDS011;703;51.162;13.574;2023-02-28T11:13:16;44.80;;;20.37;;
1416;SDS011;703;51.162;13.574;2023-02-28T11:15:45;42.40;;;18.70;;
1416;SDS011;703;51.162;13.574;2023-02-28T11:18:24;42.80;;;20.40;;
1416;SDS011;703;51.162;13.574;2023-02-28T11:20:50;42.37;;;17.33;;
1416;SDS011;703;51.162;13.574;2023-02-28T11:23:18;41.17;;;18.70;;
1416;SDS011;703;51.162;13.574;2023-02-28T11:25:50;43.77;;;20.80;;
1416;SDS011;703;51.162;13.574;2023-02-28T11:38:36;43.07;;;20.73;;
1416;SDS011;703;51.162;13.574;2023-02-28T11:41:19;42.97;;;21.13;;
1416;SDS011;703;51.162;13.574;2023-02-28T11:46:18;43.07;;;20.10;;
1416;SDS011;703;51.162;13.574;2023-02-28T11:48:55;42.50;;;20.60;;
1416;SDS011;703;51.162;13.574;2023-02-28T11:51:28;43.57;;;22.53;;
1416;SDS011;703;51.162;13.574;2023-02-28T11:59:02;43.10;;;20.03;;
1416;SDS011;703;51.162;13.574;2023-02-28T12:01:38;44.97;;;23.40;;
1416;SDS011;703;51.162;13.574;2023-02-28T12:21:35;43.27;;;19.50;;
1416;SDS011;703;51.162;13.574;2023-02-28T12:26:43;47.10;;;29.63;;
1416;SDS011;703;51.162;13.574;2023-02-28T12:31:44;49.97;;;29.77;;
1416;SDS011;703;51.162;13.574;2023-02-28T12:34:34;50.70;;;30.40;;
1416;SDS011;703;51.162;13.574;2023-02-28T12:37:03;47.80;;;30.10;;
1416;SDS011;703;51.162;13.574;2023-02-28T12:39:38;43.90;;;23.73;;
1416;SDS011;703;51.162;13.574;2023-02-28T12:42:10;49.07;;;34.60;;
1416;SDS011;703;51.162;13.574;2023-02-28T12:44:54;51.70;;;35.83;;
1416;SDS011;703;51.162;13.574;2023-02-28T12:47:24;50.20;;;39.43;;
1416;SDS011;703;51.162;13.574;2023-02-28T12:52:23;51.20;;;38.50;;
1416;SDS011;703;51.162;13.574;2023-02-28T12:57:31;49.73;;;35.37;;
1416;SDS011;703;51.162;13.574;2023-02-28T13:00:00;47.63;;;33.63;;
1416;SDS011;703;51.162;13.574;2023-02-28T13:10:05;46.23;;;31.60;;
1416;SDS011;703;51.162;13.574;2023-02-28T13:12:32;46.50;;;33.37;;
1416;SDS011;703;51.162;13.574;2023-02-28T13:17:40;48.73;;;31.60;;
1416;SDS011;703;51.162;13.574;2023-02-28T13:20:14;46.77;;;29.30;;
1416;SDS011;703;51.162;13.574;2023-02-28T13:22:42;45.20;;;31.40;;
1416;SDS011;703;51.162;13.574;2023-02-28T13:27:48;50.60;;;35.20;;
1416;SDS011;703;51.162;13.574;2023-02-28T13:33:23;53.00;;;34.97;;
1416;SDS011;703;51.162;13.574;2023-02-28T13:38:44;47.80;;;33.37;;
1416;SDS011;703;51.162;13.574;2023-02-28T13:46:28;48.83;;;31.17;;
1416;SDS011;703;51.162;13.574;2023-02-28T13:48:55;47.27;;;32.10;;
1416;SDS011;703;51.162;13.574;2023-02-28T13:51:54;44.03;;;29.13;;
1416;SDS011;703;51.162;13.574;2023-02-28T13:54:24;49.10;;;29.87;;
1416;SDS011;703;51.162;13.574;2023-02-28T14:05:17;45.80;;;27.40;;
1416;SDS011;703;51.162;13.574;2023-02-28T14:10:15;44.20;;;27.73;;
1416;SDS011;703;51.162;13.574;2023-02-28T14:12:53;46.00;;;26.00;;
1416;SDS011;703;51.162;13.574;2023-02-28T14:18:01;44.83;;;27.80;;
1416;SDS011;703;51.162;13.574;2023-02-28T14:20:29;45.13;;;25.40;;
1416;SDS011;703;51.162;13.574;2023-02-28T14:36:30;44.47;;;27.20;;
1416;SDS011;703;51.162;13.574;2023-02-28T14:38:59;45.43;;;28.00;;
1416;SDS011;703;51.162;13.574;2023-02-28T14:41:33;44.37;;;27.40;;
1416;SDS011;703;51.162;13.574;2023-02-28T14:44:02;45.00;;;26.50;;
1416;SDS011;703;51.162;13.574;2023-02-28T14:46:39;47.77;;;27.47;;
1416;SDS011;703;51.162;13.574;2023-02-28T14:49:05;45.67;;;28.20;;
1416;SDS011;703;51.162;13.574;2023-02-28T14:51:32;47.00;;;29.50;;
1416;SDS011;703;51.162;13.574;2023-02-28T14:53:59;45.40;;;27.67;;
1416;SDS011;703;51.162;13.574;2023-02-28T14:56:34;45.17;;;26.80;;
1416;SDS011;703;51.162;13.574;2023-02-28T14:59:00;46.80;;;27.10;;
1416;SDS011;703;51.162;13.574;2023-02-28T15:01:26;46.40;;;28.63;;
1416;SDS011;703;51.162;13.574;2023-02-28T15:04:26;46.03;;;27.80;;
1416;SDS011;703;51.162;13.574;2023-02-28T15:06:44;46.97;;;25.90;;
1416;SDS011;703;51.162;13.574;2023-02-28T15:09:17;45.60;;;26.60;;
1416;SDS011;703;51.162;13.574;2023-02-28T15:11:47;47.57;;;26.53;;
1416;SDS011;703;51.162;13.574;2023-02-28T15:14:18;44.50;;;26.10;;
1416;SDS011;703;51.162;13.574;2023-02-28T15:16:45;48.87;;;27.93;;
1416;SDS011;703;51.162;13.574;2023-02-28T15:21:42;45.63;;;24.17;;
1416;SDS011;703;51.162;13.574;2023-02-28T15:24:13;47.17;;;28.40;;
1416;SDS011;703;51.162;13.574;2023-02-28T15:26:59;44.30;;;23.87;;
1416;SDS011;703;51.162;13.574;2023-02-28T15:29:27;44.93;;;24.20;;
1416;SDS011;703;51.162;13.574;2023-02-28T15:31:58;44.63;;;23.80;;
1416;SDS011;703;51.162;13.574;2023-02-28T15:34:27;44.70;;;23.40;;
1416;SDS011;703;51.162;13.574;2023-02-28T15:36:55;42.77;;;23.03;;
1416;SDS011;703;51.162;13.574;2023-02-28T15:39:22;48.40;;;26.00;;
1416;SDS011;703;51.162;13.574;2023-02-28T15:41:49;44.03;;;21.00;;
1416;SDS011;703;51.162;13.574;2023-02-28T15:44:28;45.40;;;24.37;;
1416;SDS011;703;51.162;13.574;2023-02-28T15:47:05;46.90;;;25.60;;
1416;SDS011;703;51.162;13.574;2023-02-28T15:49:36;43.40;;;22.17;;
1416;SDS011;703;51.162;13.574;2023-02-28T15:52:04;44.60;;;20.73;;
1416;SDS011;703;51.162;13.574;2023-02-28T15:54:32;50.70;;;23.90;;
1416;SDS011;703;51.162;13.574;2023-02-28T15:57:03;44.50;;;22.43;;
1416;SDS011;703;51.162;13.574;2023-02-28T15:59:33;45.23;;;23.33;;
1416;SDS011;703;51.162;13.574;2023-02-28T16:04:34;45.67;;;24.40;;
1416;SDS011;703;51.162;13.574;2023-02-28T16:07:02;42.43;;;20.40;;
1416;SDS011;703;51.162;13.574;2023-02-28T16:09:29;42.53;;;20.93;;
1416;SDS011;703;51.162;13.574;2023-02-28T16:11:56;42.80;;;20.07;;
1416;SDS011;703;51.162;13.574;2023-02-28T16:14:26;43.97;;;21.30;;
1416;SDS011;703;51.162;13.574;2023-02-28T16:17:03;42.33;;;20.80;;
1416;SDS011;703;51.162;13.574;2023-02-28T16:19:29;43.27;;;20.30;;
1416;SDS011;703;51.162;13.574;2023-02-28T16:21:56;44.17;;;22.30;;
1416;SDS011;703;51.162;13.574;2023-02-28T16:24:21;43.73;;;21.00;;
1416;SDS011;703;51.162;13.574;2023-02-28T16:26:48;46.17;;;20.53;;
1416;SDS011;703;51.162;13.574;2023-02-28T16:29:34;44.60;;;22.43;;
1416;SDS011;703;51.162;13.574;2023-02-28T16:32:03;47.10;;;21.27;;
1416;SDS011;703;51.162;13.574;2023-02-28T16:34:30;45.17;;;22.60;;
1416;SDS011;703;51.162;13.574;2023-02-28T16:36:56;45.57;;;23.40;;
1416;SDS011;703;51.162;13.574;2023-02-28T16:39:22;45.60;;;22.63;;
1416;SDS011;703;51.162;13.574;2023-02-28T16:41:49;44.17;;;20.43;;
1416;SDS011;703;51.162;13.574;2023-02-28T16:46:51;44.93;;;21.53;;
1416;SDS011;703;51.162;13.574;2023-02-28T16:49:17;46.43;;;22.67;;
1416;SDS011;703;51.162;13.574;2023-02-28T16:51:43;43.67;;;18.80;;
1416;SDS011;703;51.162;13.574;2023-02-28T16:54:08;46.00;;;21.03;;
1416;SDS011;703;51.162;13.574;2023-02-28T16:56:34;48.87;;;20.47;;
1416;SDS011;703;51.162;13.574;2023-02-28T16:59:01;45.30;;;19.83;;
1416;SDS011;703;51.162;13.574;2023-02-28T17:01:27;44.80;;;19.00;;
1416;SDS011;703;51.162;13.574;2023-02-28T17:03:53;45.67;;;20.30;;
1416;SDS011;703;51.162;13.574;2023-02-28T17:06:21;48.47;;;23.40;;
1416;SDS011;703;51.162;13.574;2023-02-28T17:08:48;48.17;;;23.47;;
1416;SDS011;703;51.162;13.574;2023-02-28T17:11:14;49.80;;;25.50;;
1416;SDS011;703;51.162;13.574;2023-02-28T17:13:40;53.60;;;26.17;;
1416;SDS011;703;51.162;13.574;2023-02-28T17:16:09;49.67;;;25.40;;
1416;SDS011;703;51.162;13.574;2023-02-28T17:18:38;50.83;;;25.40;;
1416;SDS011;703;51.162;13.574;2023-02-28T17:21:05;50.37;;;26.07;;
1416;SDS011;703;51.162;13.574;2023-02-28T17:23:38;55.03;;;26.20;;
1416;SDS011;703;51.162;13.574;2023-02-28T17:26:04;54.20;;;26.83;;
1416;SDS011;703;51.162;13.574;2023-02-28T17:28:31;52.27;;;26.03;;
1416;SDS011;703;51.162;13.574;2023-02-28T17:30:57;50.50;;;23.37;;
1416;SDS011;703;51.162;13.574;2023-02-28T17:33:23;54.50;;;25.97;;
1416;SDS011;703;51.162;13.574;2023-02-28T17:35:49;56.27;;;28.03;;
1416;SDS011;703;51.162;13.574;2023-02-28T17:38:16;53.77;;;26.77;;